sensor_id;sensor_type;location;lat;lon;timestamp;pressure;altitude;pressure_sealevel;temperature;humidity
10310;BME280;5200;43.236;27.986;2023-04-20T00:00:31;99478.53;;;9.26;100.00
10310;BME280;5200;43.236;27.986;2023-04-20T00:02:57;99445.16;;;9.09;100.00
10310;BME280;5200;43.236;27.986;2023-04-20T00:05:24;99472.19;;;9.29;100.00
10310;BME280;5200;43.236;27.986;2023-04-20T00:07:51;99466.25;;;9.27;100.00
10310;BME280;5200;43.236;27.986;2023-04-20T00:10:20;99443.78;;;9.05;100.00
10310;BME280;5200;43.236;27.986;2023-04-20T00:12:47;99454.13;;;9.16;100.00
10310;BME280;5200;43.236;27.986;2023-04-20T00:15:13;99441.44;;;9.02;100.00
10310;BME280;5200;43.236;27.986;2023-04-20T00:17:40;99460.34;;;9.15;100.00
10310;BME280;5200;43.236;27.986;2023-04-20T00:20:09;99452.59;;;9.14;100.00
10310;BME280;5200;43.236;27.986;2023-04-20T00:22:37;99456.47;;;9.09;100.00
10310;BME280;5200;43.236;27.986;2023-04-20T00:25:05;99460.78;;;9.10;100.00
10310;BME280;5200;43.236;27.986;2023-04-20T00:27:33;99455.38;;;9.02;100.00
10310;BME280;5200;43.236;27.986;2023-04-20T00:30:00;99448.75;;;8.98;100.00
10310;BME280;5200;43.236;27.986;2023-04-20T00:32:26;99459.94;;;9.00;100.00
10310;BME280;5200;43.236;27.986;2023-04-20T00:34:54;99445.47;;;8.96;100.00
10310;BME280;5200;43.236;27.986;2023-04-20T00:37:21;99427.78;;;8.88;100.00
10310;BME280;5200;43.236;27.986;2023-04-20T00:39:50;99443.38;;;9.00;100.00
10310;BME280;5200;43.236;27.986;2023-04-20T00:42:16;99420.22;;;8.85;100.00
10310;BME280;5200;43.236;27.986;2023-04-20T00:44:45;99439.38;;;8.96;100.00
10310;BME280;5200;43.236;27.986;2023-04-20T00:47:11;99446.28;;;8.97;100.00
10310;BME280;5200;43.236;27.986;2023-04-20T00:49:38;99407.53;;;8.71;100.00
10310;BME280;5200;43.236;27.986;2023-04-20T00:52:05;99439.78;;;8.91;100.00
10310;BME280;5200;43.236;27.986;2023-04-20T00:54:32;99420.63;;;8.81;100.00
10310;BME280;5200;43.236;27.986;2023-04-20T00:56:59;99444.38;;;8.99;100.00
10310;BME280;5200;43.236;27.986;2023-04-20T00:59:27;99439.94;;;8.99;100.00
10310;BME280;5200;43.236;27.986;2023-04-20T01:01:56;99447.38;;;9.04;100.00
10310;BME280;5200;43.236;27.986;2023-04-20T01:04:22;99418.69;;;8.93;100.00
10310;BME280;5200;43.236;27.986;2023-04-20T01:06:49;99437.00;;;9.12;100.00
10310;BME280;5200;43.236;27.986;2023-04-20T01:09:16;99444.59;;;9.15;100.00
10310;BME280;5200;43.236;27.986;2023-04-20T01:11:43;99441.56;;;9.20;100.00
10310;BME280;5200;43.236;27.986;2023-04-20T01:14:10;99433.81;;;9.18;100.00
10310;BME280;5200;43.236;27.986;2023-04-20T01:16:36;99439.34;;;9.15;100.00
10310;BME280;5200;43.236;27.986;2023-04-20T01:19:04;99445.44;;;9.16;100.00
10310;BME280;5200;43.236;27.986;2023-04-20T01:21:31;99399.91;;;8.87;100.00
10310;BME280;5200;43.236;27.986;2023-04-20T01:24:00;99439.78;;;9.10;100.00
10310;BME280;5200;43.236;27.986;2023-04-20T01:26:27;99415.09;;;8.94;100.00
10310;BME280;5200;43.236;27.986;2023-04-20T01:28:53;99435.78;;;9.06;100.00
10310;BME280;5200;43.236;27.986;2023-04-20T01:31:20;99411.22;;;8.88;100.00
10310;BME280;5200;43.236;27.986;2023-04-20T01:33:47;99439.91;;;9.09;100.00
10310;BME280;5200;43.236;27.986;2023-04-20T01:36:14;99433.28;;;9.05;100.00
10310;BME280;5200;43.236;27.986;2023-04-20T01:38:41;99442.66;;;9.07;100.00
10310;BME280;5200;43.236;27.986;2023-04-20T01:41:09;99415.94;;;8.84;100.00
10310;BME280;5200;43.236;27.986;2023-04-20T01:43:37;99430.25;;;9.00;100.00
10310;BME280;5200;43.236;27.986;2023-04-20T01:46:04;99437.84;;;9.03;100.00
10310;BME280;5200;43.236;27.986;2023-04-20T01:48:31;99412.63;;;8.82;100.00
10310;BME280;5200;43.236;27.986;2023-04-20T01:50:58;99437.19;;;9.01;100.00
10310;BME280;5200;43.236;27.986;2023-04-20T01:53:25;99412.06;;;8.88;100.00
10310;BME280;5200;43.236;27.986;2023-04-20T01:55:52;99428.31;;;9.02;100.00
10310;BME280;5200;43.236;27.986;2023-04-20T01:58:20;99435.22;;;9.03;100.00
10310;BME280;5200;43.236;27.986;2023-04-20T02:00:47;99410.41;;;8.87;100.00
10310;BME280;5200;43.236;27.986;2023-04-20T02:03:14;99413.31;;;8.84;100.00
10310;BME280;5200;43.236;27.986;2023-04-20T02:05:41;99438.00;;;9.01;100.00
10310;BME280;5200;43.236;27.986;2023-04-20T02:08:07;99441.75;;;8.99;100.00
10310;BME280;5200;43.236;27.986;2023-04-20T02:10:34;99409.31;;;8.80;100.00
10310;BME280;5200;43.236;27.986;2023-04-20T02:13:01;99434.41;;;8.93;100.00
10310;BME280;5200;43.236;27.986;2023-04-20T02:15:29;99414.00;;;8.77;100.00
10310;BME280;5200;43.236;27.986;2023-04-20T02:17:56;99416.22;;;8.81;100.00
10310;BME280;5200;43.236;27.986;2023-04-20T02:20:23;99412.63;;;8.82;100.00
10310;BME280;5200;43.236;27.986;2023-04-20T02:22:50;99419.53;;;8.83;100.00
10310;BME280;5200;43.236;27.986;2023-04-20T02:25:16;99419.53;;;8.83;100.00
10310;BME280;5200;43.236;27.986;2023-04-20T02:27:43;99440.34;;;8.95;100.00
10310;BME280;5200;43.236;27.986;2023-04-20T02:30:11;99450.16;;;8.93;100.00
10310;BME280;5200;43.236;27.986;2023-04-20T02:32:39;99424.09;;;8.72;100.00
10310;BME280;5200;43.236;27.986;2023-04-20T02:35:06;99440.50;;;8.83;100.00
10310;BME280;5200;43.236;27.986;2023-04-20T02:37:33;99443.41;;;8.80;100.00
10310;BME280;5200;43.236;27.986;2023-04-20T02:40:00;99419.69;;;8.62;100.00
10310;BME280;5200;43.236;27.986;2023-04-20T02:42:27;99425.63;;;8.55;100.00
10310;BME280;5200;43.236;27.986;2023-04-20T02:44:54;99432.53;;;8.65;100.00
10310;BME280;5200;43.236;27.986;2023-04-20T02:47:20;99436.09;;;8.64;100.00
10310;BME280;5200;43.236;27.986;2023-04-20T02:49:48;99405.19;;;8.49;100.00
10310;BME280;5200;43.236;27.986;2023-04-20T02:52:15;99435.00;;;8.67;100.00
10310;BME280;5200;43.236;27.986;2023-04-20T02:54:42;99430.03;;;8.64;100.00
10310;BME280;5200;43.236;27.986;2023-04-20T02:57:09;99400.53;;;8.42;100.00
10310;BME280;5200;43.236;27.986;2023-04-20T02:59:36;99433.34;;;8.66;100.00
10310;BME280;5200;43.236;27.986;2023-04-20T03:02:03;99401.88;;;8.46;100.00
10310;BME280;5200;43.236;27.986;2023-04-20T03:04:31;99410.84;;;8.44;100.00
10310;BME280;5200;43.236;27.986;2023-04-20T03:07:00;99432.25;;;8.59;100.00
10310;BME280;5200;43.236;27.986;2023-04-20T03:09:27;99408.09;;;8.45;100.00
10310;BME280;5200;43.236;27.986;2023-04-20T03:11:54;99395.50;;;8.39;100.00
10310;BME280;5200;43.236;27.986;2023-04-20T03:14:21;99429.50;;;8.51;100.00
10310;BME280;5200;43.236;27.986;2023-04-20T03:16:47;99424.13;;;8.42;100.00
10310;BME280;5200;43.236;27.986;2023-04-20T03:19:14;99415.94;;;8.36;100.00
10310;BME280;5200;43.236;27.986;2023-04-20T03:21:41;99428.09;;;8.46;100.00
10310;BME280;5200;43.236;27.986;2023-04-20T03:24:11;99426.16;;;8.49;100.00
10310;BME280;5200;43.236;27.986;2023-04-20T03:26:37;99396.38;;;8.30;100.00
10310;BME280;5200;43.236;27.986;2023-04-20T03:29:04;99406.00;;;8.39;100.00
10310;BME280;5200;43.236;27.986;2023-04-20T03:31:31;99423.28;;;8.52;100.00
10310;BME280;5200;43.236;27.986;2023-04-20T03:33:58;99427.84;;;8.50;100.00
10310;BME280;5200;43.236;27.986;2023-04-20T03:36:25;99429.50;;;8.51;100.00
10310;BME280;5200;43.236;27.986;2023-04-20T03:38:52;99399.41;;;8.35;100.00
10310;BME280;5200;43.236;27.986;2023-04-20T03:41:21;99418.47;;;8.57;100.00
10310;BME280;5200;43.236;27.986;2023-04-20T03:43:48;99405.75;;;8.62;100.00
10310;BME280;5200;43.236;27.986;2023-04-20T03:46:14;99404.44;;;8.95;100.00
10310;BME280;5200;43.236;27.986;2023-04-20T03:48:41;99428.22;;;9.31;100.00
10310;BME280;5200;43.236;27.986;2023-04-20T03:51:08;99425.19;;;9.36;100.00
10310;BME280;5200;43.236;27.986;2023-04-20T03:53:35;99428.44;;;9.57;100.00
10310;BME280;5200;43.236;27.986;2023-04-20T03:56:02;99432.97;;;9.83;100.00
10310;BME280;5200;43.236;27.986;2023-04-20T03:58:30;99405.44;;;9.87;100.00
10310;BME280;5200;43.236;27.986;2023-04-20T04:01:00;99419.22;;;10.16;100.00
10310;BME280;5200;43.236;27.986;2023-04-20T04:03:27;99433.16;;;10.45;100.00
10310;BME280;5200;43.236;27.986;2023-04-20T04:05:54;99423.28;;;10.65;100.00
10310;BME280;5200;43.236;27.986;2023-04-20T04:08:21;99430.72;;;10.87;100.00
10310;BME280;5200;43.236;27.986;2023-04-20T04:10:47;99424.09;;;11.09;100.00
10310;BME280;5200;43.236;27.986;2023-04-20T04:13:14;99410.81;;;11.19;100.00
10310;BME280;5200;43.236;27.986;2023-04-20T04:15:43;99415.78;;;11.48;100.00
10310;BME280;5200;43.236;27.986;2023-04-20T04:18:09;99434.56;;;11.88;100.00
10310;BME280;5200;43.236;27.986;2023-04-20T04:20:36;99410.69;;;11.97;100.00
10310;BME280;5200;43.236;27.986;2023-04-20T04:23:04;99407.28;;;12.21;100.00
10310;BME280;5200;43.236;27.986;2023-04-20T04:25:31;99433.53;;;12.64;100.00
10310;BME280;5200;43.236;27.986;2023-04-20T04:27:58;99407.97;;;12.73;100.00
10310;BME280;5200;43.236;27.986;2023-04-20T04:30:25;99423.28;;;12.94;100.00
10310;BME280;5200;43.236;27.986;2023-04-20T04:32:55;99436.75;;;13.23;100.00
10310;BME280;5200;43.236;27.986;2023-04-20T04:35:21;99402.94;;;13.19;100.00
10310;BME280;5200;43.236;27.986;2023-04-20T04:37:48;99424.38;;;13.24;100.00
10310;BME280;5200;43.236;27.986;2023-04-20T04:40:17;99442.22;;;13.22;100.00
10310;BME280;5200;43.236;27.986;2023-04-20T04:42:44;99412.16;;;13.23;100.00
10310;BME280;5200;43.236;27.986;2023-04-20T04:45:11;99431.47;;;13.48;100.00
10310;BME280;5200;43.236;27.986;2023-04-20T04:47:39;99435.03;;;13.63;100.00
10310;BME280;5200;43.236;27.986;2023-04-20T04:50:09;99434.41;;;13.92;100.00
10310;BME280;5200;43.236;27.986;2023-04-20T04:52:37;99413.78;;;14.11;100.00
10310;BME280;5200;43.236;27.986;2023-04-20T04:55:04;99410.81;;;14.14;100.00
10310;BME280;5200;43.236;27.986;2023-04-20T04:57:33;99422.38;;;14.13;100.00
10310;BME280;5200;43.236;27.986;2023-04-20T05:00:00;99450.25;;;14.24;100.00
10310;BME280;5200;43.236;27.986;2023-04-20T05:02:28;99455.69;;;14.30;100.00
10310;BME280;5200;43.236;27.986;2023-04-20T05:04:55;99437.59;;;14.11;100.00
10310;BME280;5200;43.236;27.986;2023-04-20T05:07:23;99438.38;;;13.88;100.00
10310;BME280;5200;43.236;27.986;2023-04-20T05:09:50;99433.53;;;13.61;100.00
10310;BME280;5200;43.236;27.986;2023-04-20T05:12:17;99428.66;;;13.33;100.00
10310;BME280;5200;43.236;27.986;2023-04-20T05:14:44;99464.00;;;13.24;100.00
10310;BME280;5200;43.236;27.986;2023-04-20T05:17:11;99460.72;;;13.14;100.00
10310;BME280;5200;43.236;27.986;2023-04-20T05:19:38;99433.53;;;12.80;100.00
10310;BME280;5200;43.236;27.986;2023-04-20T05:22:05;99446.72;;;12.72;100.00
10310;BME280;5200;43.236;27.986;2023-04-20T05:24:33;99462.06;;;12.77;100.00
10310;BME280;5200;43.236;27.986;2023-04-20T05:27:00;99437.13;;;12.38;100.00
10310;BME280;5200;43.236;27.986;2023-04-20T05:29:28;99438.63;;;12.33;100.00
10310;BME280;5200;43.236;27.986;2023-04-20T05:31:55;99441.41;;;12.23;100.00
10310;BME280;5200;43.236;27.986;2023-04-20T05:34:22;99467.28;;;12.19;100.00
10310;BME280;5200;43.236;27.986;2023-04-20T05:36:49;99468.28;;;12.18;100.00
10310;BME280;5200;43.236;27.986;2023-04-20T05:39:16;99461.94;;;12.03;100.00
10310;BME280;5200;43.236;27.986;2023-04-20T05:41:45;99460.13;;;11.95;100.00
10310;BME280;5200;43.236;27.986;2023-04-20T05:44:12;99435.91;;;11.66;100.00
10310;BME280;5200;43.236;27.986;2023-04-20T05:46:39;99466.84;;;11.90;100.00
10310;BME280;5200;43.236;27.986;2023-04-20T05:49:06;99470.09;;;11.83;100.00
10310;BME280;5200;43.236;27.986;2023-04-20T05:51:33;99462.47;;;11.72;100.00
10310;BME280;5200;43.236;27.986;2023-04-20T05:54:00;99472.34;;;11.70;100.00
10310;BME280;5200;43.236;27.986;2023-04-20T05:56:27;99473.00;;;11.72;100.00
10310;BME280;5200;43.236;27.986;2023-04-20T05:58:55;99470.41;;;11.80;100.00
10310;BME280;5200;43.236;27.986;2023-04-20T06:01:22;99461.94;;;11.69;100.00
10310;BME280;5200;43.236;27.986;2023-04-20T06:03:49;99453.22;;;11.68;100.00
10310;BME280;5200;43.236;27.986;2023-04-20T06:06:16;99477.66;;;11.78;100.00
10310;BME280;5200;43.236;27.986;2023-04-20T06:08:42;99469.75;;;11.78;100.00
10310;BME280;5200;43.236;27.986;2023-04-20T06:11:09;99473.69;;;11.82;100.00
10310;BME280;5200;43.236;27.986;2023-04-20T06:13:36;99445.38;;;11.76;100.00
10310;BME280;5200;43.236;27.986;2023-04-20T06:16:05;99439.75;;;11.79;100.00
10310;BME280;5200;43.236;27.986;2023-04-20T06:18:33;99425.59;;;11.80;100.00
10310;BME280;5200;43.236;27.986;2023-04-20T06:21:01;99444.50;;;12.02;100.00
10310;BME280;5200;43.236;27.986;2023-04-20T06:23:28;99460.84;;;12.22;100.00
10310;BME280;5200;43.236;27.986;2023-04-20T06:25:54;99456.38;;;12.22;100.00
10310;BME280;5200;43.236;27.986;2023-04-20T06:28:21;99460.69;;;12.32;100.00
10310;BME280;5200;43.236;27.986;2023-04-20T06:30:48;99460.06;;;12.38;100.00
10310;BME280;5200;43.236;27.986;2023-04-20T06:33:16;99437.97;;;12.31;100.00
10310;BME280;5200;43.236;27.986;2023-04-20T06:35:43;99459.75;;;12.49;100.00
10310;BME280;5200;43.236;27.986;2023-04-20T06:38:10;99461.72;;;12.47;100.00
10310;BME280;5200;43.236;27.986;2023-04-20T06:40:37;99431.50;;;12.25;100.00
10310;BME280;5200;43.236;27.986;2023-04-20T06:43:03;99429.03;;;12.23;100.00
10310;BME280;5200;43.236;27.986;2023-04-20T06:45:30;99451.47;;;12.44;100.00
10310;BME280;5200;43.236;27.986;2023-04-20T06:47:57;99442.59;;;12.45;100.00
10310;BME280;5200;43.236;27.986;2023-04-20T06:50:25;99445.22;;;12.45;100.00
10310;BME280;5200;43.236;27.986;2023-04-20T06:52:52;99451.31;;;12.45;100.00
10310;BME280;5200;43.236;27.986;2023-04-20T06:55:19;99457.44;;;12.62;100.00
10310;BME280;5200;43.236;27.986;2023-04-20T06:57:46;99441.09;;;12.67;100.00
10310;BME280;5200;43.236;27.986;2023-04-20T07:00:15;99429.56;;;12.84;100.00
10310;BME280;5200;43.236;27.986;2023-04-20T07:02:46;99430.72;;;12.98;100.00
10310;BME280;5200;43.236;27.986;2023-04-20T07:05:14;99460.56;;;13.31;100.00
10310;BME280;5200;43.236;27.986;2023-04-20T07:07:43;99436.94;;;13.30;100.00
10310;BME280;5200;43.236;27.986;2023-04-20T07:10:12;99465.97;;;13.55;100.00
10310;BME280;5200;43.236;27.986;2023-04-20T07:12:40;99441.69;;;13.51;100.00
10310;BME280;5200;43.236;27.986;2023-04-20T07:15:07;99431.31;;;13.41;100.00
10310;BME280;5200;43.236;27.986;2023-04-20T07:17:34;99473.00;;;13.70;100.00
10310;BME280;5200;43.236;27.986;2023-04-20T07:20:02;99468.16;;;13.82;100.00
10310;BME280;5200;43.236;27.986;2023-04-20T07:22:31;99464.53;;;13.75;100.00
10310;BME280;5200;43.236;27.986;2023-04-20T07:25:00;99468.94;;;13.91;100.00
10310;BME280;5200;43.236;27.986;2023-04-20T07:27:28;99475.34;;;14.05;100.00
10310;BME280;5200;43.236;27.986;2023-04-20T07:29:55;99441.03;;;13.88;100.00
10310;BME280;5200;43.236;27.986;2023-04-20T07:32:22;99472.97;;;14.18;100.00
10310;BME280;5200;43.236;27.986;2023-04-20T07:34:49;99470.03;;;14.36;100.00
10310;BME280;5200;43.236;27.986;2023-04-20T07:37:15;99470.06;;;14.59;100.00
10310;BME280;5200;43.236;27.986;2023-04-20T07:39:42;99439.34;;;14.50;100.00
10310;BME280;5200;43.236;27.986;2023-04-20T07:42:10;99471.59;;;14.76;100.00
10310;BME280;5200;43.236;27.986;2023-04-20T07:44:37;99472.47;;;14.92;100.00
10310;BME280;5200;43.236;27.986;2023-04-20T07:47:04;99463.16;;;14.96;100.00
10310;BME280;5200;43.236;27.986;2023-04-20T07:49:35;99467.16;;;14.92;100.00
10310;BME280;5200;43.236;27.986;2023-04-20T07:52:01;99466.16;;;14.93;100.00
10310;BME280;5200;43.236;27.986;2023-04-20T07:54:28;99473.50;;;15.06;100.00
10310;BME280;5200;43.236;27.986;2023-04-20T07:56:55;99459.63;;;15.04;100.00
10310;BME280;5200;43.236;27.986;2023-04-20T07:59:23;99467.41;;;15.05;100.00
10310;BME280;5200;43.236;27.986;2023-04-20T08:01:50;99472.78;;;15.12;100.00
10310;BME280;5200;43.236;27.986;2023-04-20T08:04:17;99475.03;;;15.00;100.00
10310;BME280;5200;43.236;27.986;2023-04-20T08:06:44;99447.06;;;14.59;100.00
10310;BME280;5200;43.236;27.986;2023-04-20T08:09:10;99431.09;;;14.45;100.00
10310;BME280;5200;43.236;27.986;2023-04-20T08:11:37;99445.25;;;14.60;100.00
10310;BME280;5200;43.236;27.986;2023-04-20T08:14:05;99432.19;;;14.82;100.00
10310;BME280;5200;43.236;27.986;2023-04-20T08:16:33;99453.78;;;15.08;100.00
10310;BME280;5200;43.236;27.986;2023-04-20T08:19:00;99470.16;;;15.27;100.00
10310;BME280;5200;43.236;27.986;2023-04-20T08:21:28;99461.13;;;15.36;100.00
10310;BME280;5200;43.236;27.986;2023-04-20T08:23:55;99465.97;;;15.47;100.00
10310;BME280;5200;43.236;27.986;2023-04-20T08:26:22;99470.44;;;15.47;100.00
10310;BME280;5200;43.236;27.986;2023-04-20T08:28:49;99440.38;;;15.39;100.00
10310;BME280;5200;43.236;27.986;2023-04-20T08:31:16;99461.84;;;15.44;100.00
10310;BME280;5200;43.236;27.986;2023-04-20T08:33:45;99448.50;;;15.23;100.00
10310;BME280;5200;43.236;27.986;2023-04-20T08:36:11;99456.44;;;15.08;100.00
10310;BME280;5200;43.236;27.986;2023-04-20T08:38:38;99464.88;;;14.89;100.00
10310;BME280;5200;43.236;27.986;2023-04-20T08:41:05;99456.56;;;14.92;100.00
10310;BME280;5200;43.236;27.986;2023-04-20T08:43:32;99459.25;;;15.07;100.00
10310;BME280;5200;43.236;27.986;2023-04-20T08:45:59;99465.34;;;15.45;100.00
10310;BME280;5200;43.236;27.986;2023-04-20T08:48:31;99468.00;;;15.75;100.00
10310;BME280;5200;43.236;27.986;2023-04-20T08:51:01;99439.63;;;15.60;100.00
10310;BME280;5200;43.236;27.986;2023-04-20T08:53:28;99456.97;;;15.71;100.00
10310;BME280;5200;43.236;27.986;2023-04-20T08:55:55;99458.38;;;15.59;100.00
10310;BME280;5200;43.236;27.986;2023-04-20T08:58:23;99464.59;;;15.51;100.00
10310;BME280;5200;43.236;27.986;2023-04-20T09:00:50;99462.22;;;15.56;100.00
10310;BME280;5200;43.236;27.986;2023-04-20T09:03:30;99445.84;;;15.68;100.00
10310;BME280;5200;43.236;27.986;2023-04-20T09:05:57;99456.28;;;15.84;100.00
10310;BME280;5200;43.236;27.986;2023-04-20T09:08:33;99458.84;;;15.92;100.00
10310;BME280;5200;43.236;27.986;2023-04-20T09:11:00;99426.00;;;15.63;100.00
10310;BME280;5200;43.236;27.986;2023-04-20T09:13:26;99427.13;;;15.39;100.00
10310;BME280;5200;43.236;27.986;2023-04-20T09:15:53;99451.53;;;15.35;100.00
10310;BME280;5200;43.236;27.986;2023-04-20T09:18:20;99456.72;;;15.13;100.00
10310;BME280;5200;43.236;27.986;2023-04-20T09:20:48;99460.84;;;14.93;100.00
10310;BME280;5200;43.236;27.986;2023-04-20T09:23:16;99462.13;;;14.82;100.00
10310;BME280;5200;43.236;27.986;2023-04-20T09:25:48;99454.63;;;14.86;100.00
10310;BME280;5200;43.236;27.986;2023-04-20T09:28:17;99445.63;;;14.95;100.00
10310;BME280;5200;43.236;27.986;2023-04-20T09:30:45;99465.63;;;14.97;100.00
10310;BME280;5200;43.236;27.986;2023-04-20T09:33:13;99453.50;;;15.18;100.00
10310;BME280;5200;43.236;27.986;2023-04-20T09:35:42;99447.59;;;15.46;100.00
10310;BME280;5200;43.236;27.986;2023-04-20T09:38:10;99457.56;;;15.58;100.00
10310;BME280;5200;43.236;27.986;2023-04-20T09:40:37;99451.88;;;15.61;100.00
10310;BME280;5200;43.236;27.986;2023-04-20T09:43:09;99459.41;;;15.73;100.00
10310;BME280;5200;43.236;27.986;2023-04-20T09:45:37;99429.75;;;15.69;100.00
10310;BME280;5200;43.236;27.986;2023-04-20T09:48:05;99425.66;;;15.81;100.00
10310;BME280;5200;43.236;27.986;2023-04-20T09:50:34;99449.88;;;15.93;100.00
10310;BME280;5200;43.236;27.986;2023-04-20T09:53:02;99430.06;;;16.11;100.00
10310;BME280;5200;43.236;27.986;2023-04-20T09:55:30;99458.09;;;16.78;100.00
10310;BME280;5200;43.236;27.986;2023-04-20T09:57:57;99466.75;;;16.65;100.00
10310;BME280;5200;43.236;27.986;2023-04-20T10:00:26;99453.94;;;16.11;100.00
10310;BME280;5200;43.236;27.986;2023-04-20T10:02:53;99461.66;;;15.61;100.00
10310;BME280;5200;43.236;27.986;2023-04-20T10:05:31;99460.31;;;15.50;100.00
10310;BME280;5200;43.236;27.986;2023-04-20T10:07:58;99436.25;;;15.37;100.00
10310;BME280;5200;43.236;27.986;2023-04-20T10:10:26;99436.78;;;15.47;100.00
10310;BME280;5200;43.236;27.986;2023-04-20T10:12:54;99465.78;;;15.63;100.00
10310;BME280;5200;43.236;27.986;2023-04-20T10:15:22;99436.63;;;15.49;100.00
10310;BME280;5200;43.236;27.986;2023-04-20T10:17:52;99437.63;;;15.33;100.00
10310;BME280;5200;43.236;27.986;2023-04-20T10:20:22;99454.88;;;15.14;100.00
10310;BME280;5200;43.236;27.986;2023-04-20T10:22:50;99469.94;;;15.13;100.00
10310;BME280;5200;43.236;27.986;2023-04-20T10:25:19;99457.88;;;14.96;100.00
10310;BME280;5200;43.236;27.986;2023-04-20T10:27:52;99423.28;;;14.74;100.00
10310;BME280;5200;43.236;27.986;2023-04-20T10:30:20;99433.88;;;14.74;100.00
10310;BME280;5200;43.236;27.986;2023-04-20T10:32:47;99446.50;;;14.72;100.00
10310;BME280;5200;43.236;27.986;2023-04-20T10:35:15;99424.28;;;14.73;100.00
10310;BME280;5200;43.236;27.986;2023-04-20T10:37:49;99426.78;;;14.75;100.00
10310;BME280;5200;43.236;27.986;2023-04-20T10:40:22;99470.19;;;14.89;100.00
10310;BME280;5200;43.236;27.986;2023-04-20T10:42:50;99460.53;;;14.96;100.00
10310;BME280;5200;43.236;27.986;2023-04-20T10:45:17;99469.41;;;15.03;100.00
10310;BME280;5200;43.236;27.986;2023-04-20T10:47:45;99439.75;;;14.85;100.00
10310;BME280;5200;43.236;27.986;2023-04-20T10:50:13;99462.00;;;14.98;100.00
10310;BME280;5200;43.236;27.986;2023-04-20T10:52:42;99464.97;;;14.95;100.00
10310;BME280;5200;43.236;27.986;2023-04-20T10:55:19;99472.22;;;15.01;100.00
10310;BME280;5200;43.236;27.986;2023-04-20T10:57:47;99444.31;;;14.91;100.00
10310;BME280;5200;43.236;27.986;2023-04-20T11:00:15;99447.41;;;14.79;100.00
10310;BME280;5200;43.236;27.986;2023-04-20T11:02:47;99434.09;;;14.88;100.00
10310;BME280;5200;43.236;27.986;2023-04-20T11:05:15;99463.41;;;14.86;100.00
10310;BME280;5200;43.236;27.986;2023-04-20T11:07:50;99467.25;;;14.61;100.00
10310;BME280;5200;43.236;27.986;2023-04-20T11:10:17;99473.63;;;14.43;100.00
10310;BME280;5200;43.236;27.986;2023-04-20T11:12:44;99451.72;;;14.26;100.00
10310;BME280;5200;43.236;27.986;2023-04-20T11:15:11;99452.91;;;14.24;100.00
10310;BME280;5200;43.236;27.986;2023-04-20T11:17:38;99453.03;;;14.30;100.00
10310;BME280;5200;43.236;27.986;2023-04-20T11:20:07;99450.69;;;14.35;100.00
10310;BME280;5200;43.236;27.986;2023-04-20T11:22:35;99440.19;;;14.19;100.00
10310;BME280;5200;43.236;27.986;2023-04-20T11:25:05;99444.56;;;14.35;100.00
10310;BME280;5200;43.236;27.986;2023-04-20T11:27:32;99450.97;;;14.41;100.00
10310;BME280;5200;43.236;27.986;2023-04-20T11:29:59;99432.56;;;14.47;100.00
10310;BME280;5200;43.236;27.986;2023-04-20T11:32:30;99418.28;;;14.33;100.00
10310;BME280;5200;43.236;27.986;2023-04-20T11:34:58;99425.16;;;14.43;100.00
10310;BME280;5200;43.236;27.986;2023-04-20T11:37:26;99410.91;;;14.44;100.00
10310;BME280;5200;43.236;27.986;2023-04-20T11:39:59;99403.22;;;14.34;100.00
10310;BME280;5200;43.236;27.986;2023-04-20T11:42:27;99409.28;;;14.43;100.00
10310;BME280;5200;43.236;27.986;2023-04-20T11:44:55;99445.56;;;14.65;100.00
10310;BME280;5200;43.236;27.986;2023-04-20T11:47:22;99420.44;;;14.53;100.00
10310;BME280;5200;43.236;27.986;2023-04-20T11:49:49;99410.50;;;14.78;100.00
10310;BME280;5200;43.236;27.986;2023-04-20T11:52:16;99401.50;;;14.87;100.00
10310;BME280;5200;43.236;27.986;2023-04-20T11:54:43;99431.06;;;15.29;100.00
10310;BME280;5200;43.236;27.986;2023-04-20T11:57:09;99428.75;;;15.55;100.00
10310;BME280;5200;43.236;27.986;2023-04-20T11:59:38;99401.59;;;15.53;100.00
10310;BME280;5200;43.236;27.986;2023-04-20T12:02:07;99392.16;;;15.65;100.00
10310;BME280;5200;43.236;27.986;2023-04-20T12:04:34;99391.00;;;15.83;100.00
10310;BME280;5200;43.236;27.986;2023-04-20T12:07:01;99419.44;;;16.11;99.83
10310;BME280;5200;43.236;27.986;2023-04-20T12:09:28;99428.19;;;16.26;97.62
10310;BME280;5200;43.236;27.986;2023-04-20T12:12:00;99434.47;;;16.03;98.39
10310;BME280;5200;43.236;27.986;2023-04-20T12:14:27;99434.34;;;15.90;98.15
10310;BME280;5200;43.236;27.986;2023-04-20T12:16:55;99429.75;;;15.84;99.61
10310;BME280;5200;43.236;27.986;2023-04-20T12:19:22;99439.47;;;15.77;100.00
10310;BME280;5200;43.236;27.986;2023-04-20T12:21:49;99436.91;;;15.69;100.00
10310;BME280;5200;43.236;27.986;2023-04-20T12:24:16;99423.38;;;15.34;100.00
10310;BME280;5200;43.236;27.986;2023-04-20T12:26:43;99412.13;;;15.17;100.00
10310;BME280;5200;43.236;27.986;2023-04-20T12:29:10;99435.38;;;14.92;100.00
10310;BME280;5200;43.236;27.986;2023-04-20T12:31:37;99420.94;;;14.79;100.00
10310;BME280;5200;43.236;27.986;2023-04-20T12:34:05;99446.81;;;14.92;100.00
10310;BME280;5200;43.236;27.986;2023-04-20T12:36:32;99404.81;;;14.66;100.00
10310;BME280;5200;43.236;27.986;2023-04-20T12:38:59;99433.97;;;14.81;100.00
10310;BME280;5200;43.236;27.986;2023-04-20T12:41:26;99421.59;;;14.82;100.00
10310;BME280;5200;43.236;27.986;2023-04-20T12:43:53;99436.88;;;15.09;100.00
10310;BME280;5200;43.236;27.986;2023-04-20T12:46:20;99426.97;;;14.88;100.00
10310;BME280;5200;43.236;27.986;2023-04-20T12:48:47;99436.03;;;14.94;100.00
10310;BME280;5200;43.236;27.986;2023-04-20T12:51:15;99441.97;;;14.96;100.00
10310;BME280;5200;43.236;27.986;2023-04-20T12:53:42;99438.94;;;14.84;100.00